Elizabeth — 9V8794 — position and weather

sailwx.info

Track history (hours):
 
Tides and Currents Weather Stations Pressure Air Temp Water Temp Dewpoint Dewpoint Depression Visibility Wind Speed Wind Dir Waves Ship Positions

Elizabeth

Last reported at 2014-Oct-01 11:33 UTC. Time now 2014-Oct-31 20:41 UTC.
Position N 01°10' E 103°41'.
Warning: this ship's position is 30 days out of date.

Length 190 m; draft 13 m.

Type: Cargo ship. MMSI: 566073000.

Date/timePositionNaut miles runAvg speedWind from/ knotsBaromVisibWave heightAir tempDewpointWater temp
2014-Oct-01 11:33N 01°10' E 103°41'10 9.8
2014-Oct-01 10:33N 01°11' E 103°51'8 8.5
2014-Oct-01 09:33N 01°17' E 103°57'1 0.5
2014-Oct-01 08:33N 01°17' E 103°57'0 0.1
2014-Oct-01 07:33N 01°17' E 103°57'0 0.0
2014-Oct-01 06:27N 01°17' E 103°57'0 0.1
2014-Oct-01 05:33N 01°17' E 103°57'0 0.1
2014-Oct-01 04:21N 01°17' E 103°57'0 0.0
2014-Oct-01 03:21N 01°17' E 103°57'0 0.0
2014-Oct-01 02:24N 01°17' E 103°57'0 0.0
2014-Oct-01 01:30N 01°17' E 103°57'0 0.0
2014-Oct-01 00:33N 01°17' E 103°57'0 0.0
2014-Sep-30 23:33N 01°17' E 103°57'0 0.0
2014-Sep-30 22:18N 01°17' E 103°57'0 0.1
2014-Sep-30 21:33N 01°17' E 103°57'0 0.1
2014-Sep-30 20:33N 01°17' E 103°57'4 3.9
2014-Sep-30 19:33N 01°16' E 104°01'  
2014-Sep-27 20:33S 04°15' E 115°26'1110.7
2014-Sep-27 19:32S 04°05' E 115°30'5 1.6
2014-Sep-27 16:34S 04°00' E 115°30'0 0.0
2014-Sep-26 16:16S 04°00' E 115°30'0 0.0
2014-Sep-26 15:31S 04°00' E 115°30'0 0.0
2014-Sep-26 02:13S 04°00' E 115°30'0 0.0
2014-Sep-25 23:22S 04°00' E 115°30'0 0.0
2014-Sep-25 22:31S 04°00' E 115°30'0 0.0
2014-Sep-25 21:31S 04°00' E 115°30'0 0.0
2014-Sep-25 20:31S 04°00' E 115°30'0 0.0
2014-Sep-25 18:18S 04°00' E 115°30'0 0.0
2014-Sep-25 17:34S 04°00' E 115°30'0 0.0
2014-Sep-25 16:34S 04°00' E 115°30'0 0.0
2014-Sep-25 15:07S 04°00' E 115°30'  
Track history (hours):
 
Tides and Currents Weather Stations Pressure Air Temp Water Temp Dewpoint Dewpoint Depression Visibility Wind Speed Wind Dir Waves Ship Positions

Elizabeth

Last reported at 2014-Oct-01 11:33 UTC. Time now 2014-Oct-31 20:41 UTC.
Position N 01°10' E 103°41'.
Warning: this ship's position is 30 days out of date.

Length 190 m; draft 13 m.

Type: Cargo ship. MMSI: 566073000.

Date/timePositionNaut miles runAvg speedWind from/ knotsBaromVisibWave heightAir tempDewpointWater temp
2014-Oct-01 11:33N 01°10' E 103°41'10 9.8
2014-Oct-01 10:33N 01°11' E 103°51'8 8.5
2014-Oct-01 09:33N 01°17' E 103°57'1 0.5
2014-Oct-01 08:33N 01°17' E 103°57'0 0.1
2014-Oct-01 07:33N 01°17' E 103°57'0 0.0
2014-Oct-01 06:27N 01°17' E 103°57'0 0.1
2014-Oct-01 05:33N 01°17' E 103°57'0 0.1
2014-Oct-01 04:21N 01°17' E 103°57'0 0.0
2014-Oct-01 03:21N 01°17' E 103°57'0 0.0
2014-Oct-01 02:24N 01°17' E 103°57'0 0.0
2014-Oct-01 01:30N 01°17' E 103°57'0 0.0
2014-Oct-01 00:33N 01°17' E 103°57'0 0.0
2014-Sep-30 23:33N 01°17' E 103°57'0 0.0
2014-Sep-30 22:18N 01°17' E 103°57'0 0.1
2014-Sep-30 21:33N 01°17' E 103°57'0 0.1
2014-Sep-30 20:33N 01°17' E 103°57'4 3.9
2014-Sep-30 19:33N 01°16' E 104°01'  
2014-Sep-27 20:33S 04°15' E 115°26'1110.7
2014-Sep-27 19:32S 04°05' E 115°30'5 1.6
2014-Sep-27 16:34S 04°00' E 115°30'0 0.0
2014-Sep-26 16:16S 04°00' E 115°30'0 0.0
2014-Sep-26 15:31S 04°00' E 115°30'0 0.0
2014-Sep-26 02:13S 04°00' E 115°30'0 0.0
2014-Sep-25 23:22S 04°00' E 115°30'0 0.0
2014-Sep-25 22:31S 04°00' E 115°30'0 0.0
2014-Sep-25 21:31S 04°00' E 115°30'0 0.0
2014-Sep-25 20:31S 04°00' E 115°30'0 0.0
2014-Sep-25 18:18S 04°00' E 115°30'0 0.0
2014-Sep-25 17:34S 04°00' E 115°30'0 0.0
2014-Sep-25 16:34S 04°00' E 115°30'0 0.0
2014-Sep-25 15:07S 04°00' E 115°30'  

Dump ship's entire track history